sensor_id;sensor_type;location;lat;lon;timestamp;pressure;altitude;pressure_sealevel;temperature;humidity
11345;BME280;5727;42.600;23.028;2022-10-15T00:00:33;93877.06;;;11.26;100.00
11345;BME280;5727;42.600;23.028;2022-10-15T00:03:00;93871.06;;;11.37;100.00
11345;BME280;5727;42.600;23.028;2022-10-15T00:05:27;93873.16;;;11.44;100.00
11345;BME280;5727;42.600;23.028;2022-10-15T00:07:54;93872.94;;;11.49;100.00
11345;BME280;5727;42.600;23.028;2022-10-15T00:10:22;93873.38;;;11.51;100.00
11345;BME280;5727;42.600;23.028;2022-10-15T00:12:49;93862.63;;;11.32;100.00
11345;BME280;5727;42.600;23.028;2022-10-15T00:15:16;93874.31;;;11.22;100.00
11345;BME280;5727;42.600;23.028;2022-10-15T00:17:43;93864.66;;;11.02;100.00
11345;BME280;5727;42.600;23.028;2022-10-15T00:20:10;93861.66;;;10.91;100.00
11345;BME280;5727;42.600;23.028;2022-10-15T00:22:37;93861.75;;;10.83;100.00
11345;BME280;5727;42.600;23.028;2022-10-15T00:25:05;93862.72;;;10.78;100.00
11345;BME280;5727;42.600;23.028;2022-10-15T00:27:34;93867.06;;;10.74;100.00
11345;BME280;5727;42.600;23.028;2022-10-15T00:30:01;93862.09;;;10.81;100.00
11345;BME280;5727;42.600;23.028;2022-10-15T00:32:30;93860.25;;;10.94;100.00
11345;BME280;5727;42.600;23.028;2022-10-15T00:34:56;93858.00;;;11.04;100.00
11345;BME280;5727;42.600;23.028;2022-10-15T00:37:23;93858.19;;;10.99;100.00
11345;BME280;5727;42.600;23.028;2022-10-15T00:39:50;93856.47;;;11.03;100.00
11345;BME280;5727;42.600;23.028;2022-10-15T00:42:17;93854.72;;;11.07;100.00
11345;BME280;5727;42.600;23.028;2022-10-15T00:44:51;93847.75;;;11.12;100.00
11345;BME280;5727;42.600;23.028;2022-10-15T00:47:23;93855.91;;;10.98;100.00
11345;BME280;5727;42.600;23.028;2022-10-15T00:50:00;93853.91;;;10.95;100.00
11345;BME280;5727;42.600;23.028;2022-10-15T00:52:33;93850.34;;;10.99;100.00
11345;BME280;5727;42.600;23.028;2022-10-15T00:55:05;93847.09;;;11.02;100.00
11345;BME280;5727;42.600;23.028;2022-10-15T00:57:33;93846.41;;;11.05;100.00
11345;BME280;5727;42.600;23.028;2022-10-15T01:00:06;93842.06;;;11.10;100.00
11345;BME280;5727;42.600;23.028;2022-10-15T01:02:34;93838.78;;;11.13;100.00
11345;BME280;5727;42.600;23.028;2022-10-15T01:05:01;93840.00;;;11.15;100.00
11345;BME280;5727;42.600;23.028;2022-10-15T01:07:28;93839.03;;;11.20;100.00
11345;BME280;5727;42.600;23.028;2022-10-15T01:09:54;93831.38;;;11.15;100.00
11345;BME280;5727;42.600;23.028;2022-10-15T01:12:27;93828.75;;;11.15;100.00
11345;BME280;5727;42.600;23.028;2022-10-15T01:15:02;93839.22;;;11.15;100.00
11345;BME280;5727;42.600;23.028;2022-10-15T01:17:37;93842.28;;;11.17;100.00
11345;BME280;5727;42.600;23.028;2022-10-15T01:20:33;93835.97;;;11.18;100.00
11345;BME280;5727;42.600;23.028;2022-10-15T01:26:05;93831.63;;;11.22;100.00
11345;BME280;5727;42.600;23.028;2022-10-15T01:28:41;93837.94;;;11.21;100.00
11345;BME280;5727;42.600;23.028;2022-10-15T01:31:19;93836.41;;;11.20;100.00
11345;BME280;5727;42.600;23.028;2022-10-15T01:33:53;93836.09;;;11.21;100.00
11345;BME280;5727;42.600;23.028;2022-10-15T01:36:29;93843.19;;;11.21;100.00
11345;BME280;5727;42.600;23.028;2022-10-15T01:39:00;93832.34;;;11.22;100.00
11345;BME280;5727;42.600;23.028;2022-10-15T01:41:36;93836.09;;;11.21;100.00
11345;BME280;5727;42.600;23.028;2022-10-15T01:44:08;93837.94;;;11.21;100.00
11345;BME280;5727;42.600;23.028;2022-10-15T01:46:40;93839.66;;;11.04;100.00
11345;BME280;5727;42.600;23.028;2022-10-15T01:49:11;93830.03;;;11.08;100.00
11345;BME280;5727;42.600;23.028;2022-10-15T01:51:40;93836.59;;;11.15;100.00
11345;BME280;5727;42.600;23.028;2022-10-15T01:54:12;93834.19;;;11.10;100.00
11345;BME280;5727;42.600;23.028;2022-10-15T01:56:42;93836.47;;;10.66;100.00
11345;BME280;5727;42.600;23.028;2022-10-15T01:59:14;93838.91;;;10.71;100.00
11345;BME280;5727;42.600;23.028;2022-10-15T02:01:45;93840.88;;;10.74;100.00
11345;BME280;5727;42.600;23.028;2022-10-15T02:04:20;93846.66;;;10.80;100.00
11345;BME280;5727;42.600;23.028;2022-10-15T02:06:49;93835.09;;;10.81;100.00
11345;BME280;5727;42.600;23.028;2022-10-15T02:09:26;93839.75;;;10.63;100.00
11345;BME280;5727;42.600;23.028;2022-10-15T02:12:04;93839.22;;;10.70;100.00
11345;BME280;5727;42.600;23.028;2022-10-15T02:14:37;93838.13;;;10.71;100.00
11345;BME280;5727;42.600;23.028;2022-10-15T02:17:11;93842.81;;;10.65;100.00
11345;BME280;5727;42.600;23.028;2022-10-15T02:19:45;93842.81;;;10.65;100.00
11345;BME280;5727;42.600;23.028;2022-10-15T02:22:17;93839.09;;;10.66;100.00
11345;BME280;5727;42.600;23.028;2022-10-15T02:24:49;93836.63;;;10.49;100.00
11345;BME280;5727;42.600;23.028;2022-10-15T02:27:19;93841.69;;;10.54;100.00
11345;BME280;5727;42.600;23.028;2022-10-15T02:29:48;93845.81;;;10.55;100.00
11345;BME280;5727;42.600;23.028;2022-10-15T02:32:19;93843.84;;;10.52;100.00
11345;BME280;5727;42.600;23.028;2022-10-15T02:34:47;93847.53;;;10.51;100.00
11345;BME280;5727;42.600;23.028;2022-10-15T02:37:18;93853.88;;;10.50;100.00
11345;BME280;5727;42.600;23.028;2022-10-15T02:39:45;93842.25;;;10.39;100.00
11345;BME280;5727;42.600;23.028;2022-10-15T02:42:13;93850.03;;;10.27;100.00
11345;BME280;5727;42.600;23.028;2022-10-15T02:44:40;93842.81;;;10.24;100.00
11345;BME280;5727;42.600;23.028;2022-10-15T02:47:07;93840.16;;;10.12;100.00
11345;BME280;5727;42.600;23.028;2022-10-15T02:49:35;93849.19;;;10.14;100.00
11345;BME280;5727;42.600;23.028;2022-10-15T02:52:02;93843.84;;;10.11;100.00
11345;BME280;5727;42.600;23.028;2022-10-15T02:54:29;93845.72;;;10.02;100.00
11345;BME280;5727;42.600;23.028;2022-10-15T02:56:56;93834.25;;;9.86;100.00
11345;BME280;5727;42.600;23.028;2022-10-15T02:59:23;93842.63;;;9.79;100.00
11345;BME280;5727;42.600;23.028;2022-10-15T03:01:50;93846.63;;;9.77;100.00
11345;BME280;5727;42.600;23.028;2022-10-15T03:04:16;93843.13;;;9.73;100.00
11345;BME280;5727;42.600;23.028;2022-10-15T03:06:44;93844.97;;;9.72;100.00
11345;BME280;5727;42.600;23.028;2022-10-15T03:09:11;93849.41;;;9.43;100.00
11345;BME280;5727;42.600;23.028;2022-10-15T03:11:38;93841.81;;;9.20;100.00
11345;BME280;5727;42.600;23.028;2022-10-15T03:14:05;93843.81;;;9.23;100.00
11345;BME280;5727;42.600;23.028;2022-10-15T03:16:31;93841.06;;;9.11;100.00
11345;BME280;5727;42.600;23.028;2022-10-15T03:18:58;93840.16;;;9.07;100.00
11345;BME280;5727;42.600;23.028;2022-10-15T03:21:25;93848.63;;;8.96;100.00
11345;BME280;5727;42.600;23.028;2022-10-15T03:23:56;93848.50;;;8.92;100.00
11345;BME280;5727;42.600;23.028;2022-10-15T03:26:23;93847.53;;;9.05;100.00
11345;BME280;5727;42.600;23.028;2022-10-15T03:28:50;93845.72;;;8.97;100.00
11345;BME280;5727;42.600;23.028;2022-10-15T03:31:16;93848.69;;;8.87;100.00
11345;BME280;5727;42.600;23.028;2022-10-15T03:33:43;93842.53;;;8.83;100.00
11345;BME280;5727;42.600;23.028;2022-10-15T03:36:10;93850.03;;;8.93;100.00
11345;BME280;5727;42.600;23.028;2022-10-15T03:38:37;93848.63;;;9.04;100.00
11345;BME280;5727;42.600;23.028;2022-10-15T03:41:05;93850.00;;;9.10;100.00
11345;BME280;5727;42.600;23.028;2022-10-15T03:43:32;93856.16;;;9.06;100.00
11345;BME280;5727;42.600;23.028;2022-10-15T03:46:00;93864.34;;;8.87;100.00
11345;BME280;5727;42.600;23.028;2022-10-15T03:48:27;93858.50;;;8.90;100.00
11345;BME280;5727;42.600;23.028;2022-10-15T03:50:54;93856.16;;;8.97;100.00
11345;BME280;5727;42.600;23.028;2022-10-15T03:53:21;93850.00;;;9.02;100.00
11345;BME280;5727;42.600;23.028;2022-10-15T03:55:48;93850.34;;;9.00;100.00
11345;BME280;5727;42.600;23.028;2022-10-15T03:58:16;93851.53;;;9.03;100.00
11345;BME280;5727;42.600;23.028;2022-10-15T04:00:43;93856.00;;;9.02;100.00
11345;BME280;5727;42.600;23.028;2022-10-15T04:03:10;93861.56;;;8.92;100.00
11345;BME280;5727;42.600;23.028;2022-10-15T04:05:37;93854.69;;;8.79;100.00
11345;BME280;5727;42.600;23.028;2022-10-15T04:08:04;93867.59;;;8.67;100.00
11345;BME280;5727;42.600;23.028;2022-10-15T04:10:31;93853.16;;;8.61;100.00
11345;BME280;5727;42.600;23.028;2022-10-15T04:12:58;93854.84;;;8.57;100.00
11345;BME280;5727;42.600;23.028;2022-10-15T04:15:26;93858.84;;;8.63;100.00
11345;BME280;5727;42.600;23.028;2022-10-15T04:17:53;93858.06;;;8.71;100.00
11345;BME280;5727;42.600;23.028;2022-10-15T04:20:20;93858.97;;;8.75;100.00
11345;BME280;5727;42.600;23.028;2022-10-15T04:22:47;93858.50;;;8.82;100.00
11345;BME280;5727;42.600;23.028;2022-10-15T04:25:14;93864.97;;;8.67;100.00
11345;BME280;5727;42.600;23.028;2022-10-15T04:27:41;93866.06;;;8.58;100.00
11345;BME280;5727;42.600;23.028;2022-10-15T04:30:09;93870.50;;;8.57;100.00
11345;BME280;5727;42.600;23.028;2022-10-15T04:32:37;93858.97;;;8.67;100.00
11345;BME280;5727;42.600;23.028;2022-10-15T04:35:05;93868.97;;;8.73;100.00
11345;BME280;5727;42.600;23.028;2022-10-15T04:37:32;93872.50;;;8.77;100.00
11345;BME280;5727;42.600;23.028;2022-10-15T04:39:58;93869.75;;;8.74;100.00
11345;BME280;5727;42.600;23.028;2022-10-15T04:42:27;93877.72;;;8.77;100.00
11345;BME280;5727;42.600;23.028;2022-10-15T04:44:55;93872.50;;;8.52;100.00
11345;BME280;5727;42.600;23.028;2022-10-15T04:47:22;93875.28;;;8.55;100.00
11345;BME280;5727;42.600;23.028;2022-10-15T04:49:50;93882.81;;;8.65;100.00
11345;BME280;5727;42.600;23.028;2022-10-15T04:52:16;93881.44;;;8.68;100.00
11345;BME280;5727;42.600;23.028;2022-10-15T04:54:44;93880.47;;;8.72;100.00
11345;BME280;5727;42.600;23.028;2022-10-15T04:57:11;93878.19;;;8.79;100.00
11345;BME280;5727;42.600;23.028;2022-10-15T04:59:38;93882.63;;;8.79;100.00
11345;BME280;5727;42.600;23.028;2022-10-15T05:02:04;93884.47;;;8.87;100.00
11345;BME280;5727;42.600;23.028;2022-10-15T05:04:31;93878.94;;;8.88;100.00
11345;BME280;5727;42.600;23.028;2022-10-15T05:06:59;93879.25;;;8.87;100.00
11345;BME280;5727;42.600;23.028;2022-10-15T05:09:26;93886.13;;;8.91;100.00
11345;BME280;5727;42.600;23.028;2022-10-15T05:11:53;93887.53;;;8.80;100.00
11345;BME280;5727;42.600;23.028;2022-10-15T05:14:20;93889.56;;;8.83;100.00
11345;BME280;5727;42.600;23.028;2022-10-15T05:16:47;93900.00;;;8.83;100.00
11345;BME280;5727;42.600;23.028;2022-10-15T05:19:14;93898.00;;;8.89;100.00
11345;BME280;5727;42.600;23.028;2022-10-15T05:21:42;93894.19;;;8.78;100.00
11345;BME280;5727;42.600;23.028;2022-10-15T05:24:10;93897.22;;;8.80;100.00
11345;BME280;5727;42.600;23.028;2022-10-15T05:26:37;93902.00;;;8.86;100.00
11345;BME280;5727;42.600;23.028;2022-10-15T05:29:04;93903.38;;;8.84;100.00
11345;BME280;5727;42.600;23.028;2022-10-15T05:31:31;93903.38;;;8.92;100.00
11345;BME280;5727;42.600;23.028;2022-10-15T05:33:59;93902.91;;;8.90;100.00
11345;BME280;5727;42.600;23.028;2022-10-15T05:36:31;93904.31;;;8.79;100.00
11345;BME280;5727;42.600;23.028;2022-10-15T05:38:59;93894.31;;;8.81;100.00
11345;BME280;5727;42.600;23.028;2022-10-15T05:41:29;93896.75;;;8.86;100.00
11345;BME280;5727;42.600;23.028;2022-10-15T05:43:57;93908.13;;;8.90;100.00
11345;BME280;5727;42.600;23.028;2022-10-15T05:46:24;93909.97;;;8.98;100.00
11345;BME280;5727;42.600;23.028;2022-10-15T05:48:52;93913.78;;;9.09;100.00
11345;BME280;5727;42.600;23.028;2022-10-15T05:51:20;93916.09;;;9.19;100.00
11345;BME280;5727;42.600;23.028;2022-10-15T05:53:47;93911.63;;;9.11;100.00
11345;BME280;5727;42.600;23.028;2022-10-15T05:56:16;93914.84;;;9.17;100.00
11345;BME280;5727;42.600;23.028;2022-10-15T05:58:44;93907.00;;;9.26;100.00
11345;BME280;5727;42.600;23.028;2022-10-15T06:01:12;93913.91;;;9.30;100.00
11345;BME280;5727;42.600;23.028;2022-10-15T06:03:40;93916.31;;;9.44;100.00
11345;BME280;5727;42.600;23.028;2022-10-15T06:06:12;93920.56;;;9.57;100.00
11345;BME280;5727;42.600;23.028;2022-10-15T06:08:39;93921.34;;;9.66;100.00
11345;BME280;5727;42.600;23.028;2022-10-15T06:11:06;93921.88;;;9.80;100.00
11345;BME280;5727;42.600;23.028;2022-10-15T06:13:33;93924.13;;;9.90;100.00
11345;BME280;5727;42.600;23.028;2022-10-15T06:16:02;93931.53;;;9.88;100.00
11345;BME280;5727;42.600;23.028;2022-10-15T06:18:29;93929.50;;;9.93;100.00
11345;BME280;5727;42.600;23.028;2022-10-15T06:20:56;93932.84;;;10.11;100.00
11345;BME280;5727;42.600;23.028;2022-10-15T06:23:22;93925.41;;;10.22;100.00
11345;BME280;5727;42.600;23.028;2022-10-15T06:25:50;93930.41;;;10.35;100.00
11345;BME280;5727;42.600;23.028;2022-10-15T06:28:17;93932.78;;;10.49;100.00
11345;BME280;5727;42.600;23.028;2022-10-15T06:30:43;93929.19;;;10.53;100.00
11345;BME280;5727;42.600;23.028;2022-10-15T06:33:12;93939.41;;;10.67;100.00
11345;BME280;5727;42.600;23.028;2022-10-15T06:35:40;93945.56;;;10.71;100.00
11345;BME280;5727;42.600;23.028;2022-10-15T06:38:07;93948.25;;;10.83;100.00
11345;BME280;5727;42.600;23.028;2022-10-15T06:40:34;93949.06;;;10.95;100.00
11345;BME280;5727;42.600;23.028;2022-10-15T06:43:04;93944.31;;;11.10;100.00
11345;BME280;5727;42.600;23.028;2022-10-15T06:45:32;93943.03;;;11.16;100.00
11345;BME280;5727;42.600;23.028;2022-10-15T06:48:01;93948.75;;;11.30;100.00
11345;BME280;5727;42.600;23.028;2022-10-15T06:50:29;93947.03;;;11.34;100.00
11345;BME280;5727;42.600;23.028;2022-10-15T06:52:56;93954.03;;;11.42;100.00
11345;BME280;5727;42.600;23.028;2022-10-15T06:55:23;93951.47;;;11.54;100.00
11345;BME280;5727;42.600;23.028;2022-10-15T06:57:49;93948.91;;;11.78;100.00
11345;BME280;5727;42.600;23.028;2022-10-15T07:00:16;93950.69;;;11.98;100.00
11345;BME280;5727;42.600;23.028;2022-10-15T07:02:43;93955.72;;;12.15;100.00
11345;BME280;5727;42.600;23.028;2022-10-15T07:05:10;93956.38;;;12.36;100.00
11345;BME280;5727;42.600;23.028;2022-10-15T07:07:38;93966.19;;;12.39;100.00
11345;BME280;5727;42.600;23.028;2022-10-15T07:10:05;93971.22;;;12.56;100.00
11345;BME280;5727;42.600;23.028;2022-10-15T07:12:33;93968.59;;;12.68;100.00
11345;BME280;5727;42.600;23.028;2022-10-15T07:15:00;93953.69;;;12.60;100.00
11345;BME280;5727;42.600;23.028;2022-10-15T07:17:27;93961.03;;;12.67;100.00
11345;BME280;5727;42.600;23.028;2022-10-15T07:19:55;93954.97;;;12.78;100.00
11345;BME280;5727;42.600;23.028;2022-10-15T07:22:22;93953.63;;;12.97;100.00
11345;BME280;5727;42.600;23.028;2022-10-15T07:24:50;93959.59;;;13.21;100.00
11345;BME280;5727;42.600;23.028;2022-10-15T07:27:17;93955.47;;;13.36;100.00
11345;BME280;5727;42.600;23.028;2022-10-15T07:29:45;93963.84;;;13.53;100.00
11345;BME280;5727;42.600;23.028;2022-10-15T07:32:11;93965.22;;;13.63;100.00
11345;BME280;5727;42.600;23.028;2022-10-15T07:34:38;93964.97;;;13.84;100.00
11345;BME280;5727;42.600;23.028;2022-10-15T07:37:05;93970.75;;;13.89;100.00
11345;BME280;5727;42.600;23.028;2022-10-15T07:39:32;93966.97;;;14.02;100.00
11345;BME280;5727;42.600;23.028;2022-10-15T07:42:00;93961.50;;;14.26;100.00
11345;BME280;5727;42.600;23.028;2022-10-15T07:44:27;93964.91;;;14.42;100.00
11345;BME280;5727;42.600;23.028;2022-10-15T07:46:53;93962.50;;;14.53;100.00
11345;BME280;5727;42.600;23.028;2022-10-15T07:49:20;93966.59;;;14.50;100.00
11345;BME280;5727;42.600;23.028;2022-10-15T07:51:47;93963.53;;;14.48;100.00
11345;BME280;5727;42.600;23.028;2022-10-15T07:54:13;93973.28;;;14.29;100.00
11345;BME280;5727;42.600;23.028;2022-10-15T07:56:40;93973.16;;;14.25;100.00
11345;BME280;5727;42.600;23.028;2022-10-15T07:59:08;93966.53;;;14.31;100.00
11345;BME280;5727;42.600;23.028;2022-10-15T08:01:35;93970.94;;;14.27;100.00
11345;BME280;5727;42.600;23.028;2022-10-15T08:04:02;93964.59;;;14.28;100.00
11345;BME280;5727;42.600;23.028;2022-10-15T08:06:30;93965.50;;;14.36;100.00
11345;BME280;5727;42.600;23.028;2022-10-15T08:08:57;93959.31;;;14.28;100.00
11345;BME280;5727;42.600;23.028;2022-10-15T08:11:24;93961.69;;;14.33;100.00
11345;BME280;5727;42.600;23.028;2022-10-15T08:13:51;93965.91;;;14.22;100.00
11345;BME280;5727;42.600;23.028;2022-10-15T08:16:19;93951.72;;;14.27;100.00
11345;BME280;5727;42.600;23.028;2022-10-15T08:18:46;93955.81;;;14.09;100.00
11345;BME280;5727;42.600;23.028;2022-10-15T08:21:14;93953.94;;;14.09;100.00
11345;BME280;5727;42.600;23.028;2022-10-15T08:23:41;93951.81;;;13.99;100.00
11345;BME280;5727;42.600;23.028;2022-10-15T08:26:08;93950.53;;;14.09;100.00
11345;BME280;5727;42.600;23.028;2022-10-15T08:28:35;93953.94;;;14.25;100.00
11345;BME280;5727;42.600;23.028;2022-10-15T08:31:02;93956.25;;;14.42;100.00
11345;BME280;5727;42.600;23.028;2022-10-15T08:33:31;93951.97;;;14.53;100.00
11345;BME280;5727;42.600;23.028;2022-10-15T08:35:58;93946.63;;;14.49;100.00
11345;BME280;5727;42.600;23.028;2022-10-15T08:38:25;93953.53;;;14.38;100.00
11345;BME280;5727;42.600;23.028;2022-10-15T08:40:54;93950.97;;;14.42;100.00
11345;BME280;5727;42.600;23.028;2022-10-15T08:43:25;93953.81;;;14.52;100.00
11345;BME280;5727;42.600;23.028;2022-10-15T08:45:57;93955.69;;;14.68;100.00
11345;BME280;5727;42.600;23.028;2022-10-15T08:48:29;93957.97;;;14.69;97.63
11345;BME280;5727;42.600;23.028;2022-10-15T08:50:59;93951.22;;;14.72;97.63
11345;BME280;5727;42.600;23.028;2022-10-15T08:53:27;93961.63;;;14.64;94.47
11345;BME280;5727;42.600;23.028;2022-10-15T08:55:59;93964.69;;;14.66;97.66
11345;BME280;5727;42.600;23.028;2022-10-15T08:58:36;93960.75;;;14.76;96.37
11345;BME280;5727;42.600;23.028;2022-10-15T09:01:17;93955.00;;;14.71;95.26
11345;BME280;5727;42.600;23.028;2022-10-15T09:03:54;93958.47;;;14.75;95.33
11345;BME280;5727;42.600;23.028;2022-10-15T09:06:28;93955.00;;;14.71;93.16
11345;BME280;5727;42.600;23.028;2022-10-15T09:09:04;93956.25;;;14.77;93.00
11345;BME280;5727;42.600;23.028;2022-10-15T09:11:41;93950.78;;;14.85;95.07
11345;BME280;5727;42.600;23.028;2022-10-15T09:14:13;93952.69;;;15.04;92.24
11345;BME280;5727;42.600;23.028;2022-10-15T09:16:41;93950.03;;;15.23;90.16
11345;BME280;5727;42.600;23.028;2022-10-15T09:19:13;93945.31;;;15.13;87.78
11345;BME280;5727;42.600;23.028;2022-10-15T09:21:43;93945.72;;;15.15;87.63
11345;BME280;5727;42.600;23.028;2022-10-15T09:24:12;93950.03;;;15.23;90.42
11345;BME280;5727;42.600;23.028;2022-10-15T09:26:51;93951.84;;;15.38;86.13
11345;BME280;5727;42.600;23.028;2022-10-15T09:29:22;93942.38;;;15.37;86.20
11345;BME280;5727;42.600;23.028;2022-10-15T09:31:57;93941.69;;;15.40;86.66
11345;BME280;5727;42.600;23.028;2022-10-15T09:34:32;93931.81;;;15.37;84.65
11345;BME280;5727;42.600;23.028;2022-10-15T09:37:05;93946.91;;;15.36;85.23
11345;BME280;5727;42.600;23.028;2022-10-15T09:39:50;93944.91;;;15.49;85.50
11345;BME280;5727;42.600;23.028;2022-10-15T09:42:25;93952.75;;;15.45;84.80
11345;BME280;5727;42.600;23.028;2022-10-15T09:44:56;93949.91;;;15.54;83.87
11345;BME280;5727;42.600;23.028;2022-10-15T09:47:27;93940.81;;;15.51;83.18
11345;BME280;5727;42.600;23.028;2022-10-15T09:49:54;93947.91;;;15.70;83.67
11345;BME280;5727;42.600;23.028;2022-10-15T09:52:33;93950.63;;;15.74;81.83
11345;BME280;5727;42.600;23.028;2022-10-15T09:55:09;93941.25;;;15.76;80.79
11345;BME280;5727;42.600;23.028;2022-10-15T09:57:39;93946.94;;;15.78;80.69
11345;BME280;5727;42.600;23.028;2022-10-15T10:00:08;93945.75;;;15.76;81.03
11345;BME280;5727;42.600;23.028;2022-10-15T10:02:36;93949.81;;;15.92;81.39
11345;BME280;5727;42.600;23.028;2022-10-15T10:05:18;93946.25;;;16.04;79.70
11345;BME280;5727;42.600;23.028;2022-10-15T10:07:46;93936.97;;;16.13;78.46
11345;BME280;5727;42.600;23.028;2022-10-15T10:10:23;93936.66;;;16.18;78.37
11345;BME280;5727;42.600;23.028;2022-10-15T10:12:51;93945.84;;;16.28;76.92
11345;BME280;5727;42.600;23.028;2022-10-15T10:15:31;93938.97;;;16.23;75.02
11345;BME280;5727;42.600;23.028;2022-10-15T10:17:59;93937.53;;;16.26;76.85
11345;BME280;5727;42.600;23.028;2022-10-15T10:20:27;93938.34;;;16.30;75.66
11345;BME280;5727;42.600;23.028;2022-10-15T10:22:57;93942.25;;;16.39;76.76
11345;BME280;5727;42.600;23.028;2022-10-15T10:25:34;93935.16;;;16.43;75.61
11345;BME280;5727;42.600;23.028;2022-10-15T10:28:15;93934.16;;;16.52;73.64
11345;BME280;5727;42.600;23.028;2022-10-15T10:30:50;93938.31;;;16.53;74.97
11345;BME280;5727;42.600;23.028;2022-10-15T10:33:23;93943.72;;;16.60;72.71
11345;BME280;5727;42.600;23.028;2022-10-15T10:35:51;93943.72;;;16.60;70.40
11345;BME280;5727;42.600;23.028;2022-10-15T10:38:21;93938.47;;;16.63;71.76
11345;BME280;5727;42.600;23.028;2022-10-15T10:40:52;93941.41;;;16.58;71.73
11345;BME280;5727;42.600;23.028;2022-10-15T10:43:26;93934.97;;;16.56;73.33
11345;BME280;5727;42.600;23.028;2022-10-15T10:45:55;93925.31;;;16.67;72.98
11345;BME280;5727;42.600;23.028;2022-10-15T10:48:24;93930.91;;;16.62;69.98
11345;BME280;5727;42.600;23.028;2022-10-15T10:51:06;93926.72;;;16.61;70.01
11345;BME280;5727;42.600;23.028;2022-10-15T10:53:41;93917.03;;;16.45;69.95
11345;BME280;5727;42.600;23.028;2022-10-15T10:56:10;93919.81;;;16.53;71.92
11345;BME280;5727;42.600;23.028;2022-10-15T10:58:38;93933.16;;;16.60;70.28
11345;BME280;5727;42.600;23.028;2022-10-15T11:01:05;93926.41;;;16.66;69.43
11345;BME280;5727;42.600;23.028;2022-10-15T11:03:34;93929.69;;;16.56;70.26
11345;BME280;5727;42.600;23.028;2022-10-15T11:06:38;93918.69;;;16.54;68.20
11345;BME280;5727;42.600;23.028;2022-10-15T11:09:20;93919.19;;;16.63;69.82
11345;BME280;5727;42.600;23.028;2022-10-15T11:12:00;93931.41;;;16.71;70.04
11345;BME280;5727;42.600;23.028;2022-10-15T11:14:39;93928.72;;;16.97;69.73
11345;BME280;5727;42.600;23.028;2022-10-15T11:17:16;93932.81;;;17.24;68.78
11345;BME280;5727;42.600;23.028;2022-10-15T11:19:52;93933.19;;;17.22;67.45
11345;BME280;5727;42.600;23.028;2022-10-15T11:22:36;93930.25;;;17.31;67.91
11345;BME280;5727;42.600;23.028;2022-10-15T11:25:16;93930.81;;;17.47;66.63
11345;BME280;5727;42.600;23.028;2022-10-15T11:27:57;93925.03;;;17.71;64.50
11345;BME280;5727;42.600;23.028;2022-10-15T11:30:37;93922.06;;;17.76;64.41
11345;BME280;5727;42.600;23.028;2022-10-15T11:33:22;93925.72;;;18.05;64.46
11345;BME280;5727;42.600;23.028;2022-10-15T11:35:59;93911.16;;;18.32;63.36
11345;BME280;5727;42.600;23.028;2022-10-15T11:38:37;93912.03;;;18.47;60.12
11345;BME280;5727;42.600;23.028;2022-10-15T11:41:17;93911.75;;;18.62;60.56
11345;BME280;5727;42.600;23.028;2022-10-15T11:44:00;93903.91;;;18.83;60.04
11345;BME280;5727;42.600;23.028;2022-10-15T11:46:35;93902.84;;;18.95;57.67
11345;BME280;5727;42.600;23.028;2022-10-15T11:49:13;93904.31;;;18.92;56.88
11345;BME280;5727;42.600;23.028;2022-10-15T11:52:00;93904.63;;;18.73;56.65
11345;BME280;5727;42.600;23.028;2022-10-15T11:54:35;93906.16;;;18.74;57.72
11345;BME280;5727;42.600;23.028;2022-10-15T11:57:07;93898.84;;;18.54;55.53
11345;BME280;5727;42.600;23.028;2022-10-15T11:59:37;93913.47;;;18.41;57.25
11345;BME280;5727;42.600;23.028;2022-10-15T12:02:11;93907.69;;;18.24;55.49
11345;BME280;5727;42.600;23.028;2022-10-15T12:04:42;93914.09;;;18.20;57.64
11345;BME280;5727;42.600;23.028;2022-10-15T12:07:14;93913.69;;;18.14;57.84
11345;BME280;5727;42.600;23.028;2022-10-15T12:09:46;93906.34;;;17.97;58.44
11345;BME280;5727;42.600;23.028;2022-10-15T12:12:25;93907.22;;;18.12;58.29
11345;BME280;5727;42.600;23.028;2022-10-15T12:17:50;93913.22;;;18.05;59.91
11345;BME280;5727;42.600;23.028;2022-10-15T12:20:20;93909.38;;;17.99;59.61
11345;BME280;5727;42.600;23.028;2022-10-15T12:22:55;93908.19;;;17.90;59.91
11345;BME280;5727;42.600;23.028;2022-10-15T12:25:42;93911.13;;;17.85;62.04
11345;BME280;5727;42.600;23.028;2022-10-15T12:28:16;93909.03;;;18.01;61.59
11345;BME280;5727;42.600;23.028;2022-10-15T12:30:53;93911.41;;;18.16;60.94
11345;BME280;5727;42.600;23.028;2022-10-15T12:33:24;93908.13;;;18.34;61.31
11345;BME280;5727;42.600;23.028;2022-10-15T12:35:53;93898.22;;;18.27;60.57
11345;BME280;5727;42.600;23.028;2022-10-15T12:38:25;93902.66;;;18.12;60.35
11345;BME280;5727;42.600;23.028;2022-10-15T12:40:59;93899.34;;;18.22;60.38
11345;BME280;5727;42.600;23.028;2022-10-15T12:43:28;93903.59;;;18.34;59.09
11345;BME280;5727;42.600;23.028;2022-10-15T12:45:58;93901.59;;;18.20;60.39
11345;BME280;5727;42.600;23.028;2022-10-15T12:48:37;93902.81;;;18.34;59.66
11345;BME280;5727;42.600;23.028;2022-10-15T12:51:37;93902.47;;;18.39;59.84
11345;BME280;5727;42.600;23.028;2022-10-15T12:54:33;93895.88;;;19.62;56.38
11345;BME280;5727;42.600;23.028;2022-10-15T12:57:01;93893.63;;;20.56;51.29
11345;BME280;5727;42.600;23.028;2022-10-15T12:59:55;93881.81;;;20.64;50.12
11345;BME280;5727;42.600;23.028;2022-10-15T13:02:36;93883.03;;;20.42;50.84
11345;BME280;5727;42.600;23.028;2022-10-15T13:05:05;93876.16;;;20.41;50.75
11345;BME280;5727;42.600;23.028;2022-10-15T13:07:35;93878.06;;;20.05;51.21
11345;BME280;5727;42.600;23.028;2022-10-15T13:10:04;93872.34;;;19.92;51.77
11345;BME280;5727;42.600;23.028;2022-10-15T13:12:42;93878.38;;;19.51;54.00
11345;BME280;5727;42.600;23.028;2022-10-15T13:15:14;93886.69;;;19.39;54.18
11345;BME280;5727;42.600;23.028;2022-10-15T13:17:42;93889.56;;;19.02;54.28